createdAt,value
2023-04-30T00:02:09.350Z,10.03
2023-04-30T00:04:37.052Z,10.00
2023-04-30T00:07:04.079Z,9.97
2023-04-30T00:09:30.743Z,9.89
2023-04-30T00:11:57.564Z,9.89
2023-04-30T00:14:24.320Z,9.80
2023-04-30T00:16:51.167Z,9.73
2023-04-30T00:19:17.930Z,9.57
2023-04-30T00:21:44.709Z,9.57
2023-04-30T00:24:11.327Z,9.45
2023-04-30T00:26:39.157Z,9.42
2023-04-30T00:29:05.748Z,9.29
2023-04-30T00:31:32.391Z,9.38
2023-04-30T00:33:59.105Z,9.39
2023-04-30T00:36:25.865Z,9.34
2023-04-30T00:38:52.583Z,9.27
2023-04-30T00:41:21.203Z,9.36
2023-04-30T00:43:47.811Z,9.32
2023-04-30T00:46:14.465Z,9.30
2023-04-30T00:48:41.186Z,9.21
2023-04-30T00:51:08.418Z,9.20
2023-04-30T00:53:36.314Z,9.10
2023-04-30T00:56:02.980Z,9.12
2023-04-30T00:58:30.131Z,9.05
2023-04-30T01:00:57.075Z,8.96
2023-04-30T01:03:24.169Z,8.77
2023-04-30T01:05:50.831Z,8.64
2023-04-30T01:08:17.760Z,8.71
2023-04-30T01:11:17.584Z,8.71
2023-04-30T01:14:08.306Z,8.72
2023-04-30T01:16:51.300Z,8.54
2023-04-30T01:19:41.031Z,8.22
2023-04-30T01:22:12.054Z,8.02
2023-04-30T01:25:00.378Z,7.85
2023-04-30T01:27:48.604Z,7.81
2023-04-30T01:30:17.253Z,7.82
2023-04-30T01:32:43.895Z,7.84
2023-04-30T01:35:10.732Z,7.76
2023-04-30T01:38:00.185Z,7.71
2023-04-30T01:40:26.776Z,7.58
2023-04-30T01:43:18.368Z,7.57
2023-04-30T01:45:56.880Z,7.59
2023-04-30T01:48:51.219Z,7.64
2023-04-30T01:51:30.776Z,7.70
2023-04-30T01:54:00.624Z,7.78
2023-04-30T01:56:32.751Z,7.70
2023-04-30T01:59:00.864Z,7.77
2023-04-30T02:01:29.022Z,7.91
2023-04-30T02:03:55.926Z,7.92
2023-04-30T02:06:28.471Z,7.82
2023-04-30T02:08:56.762Z,7.83
2023-04-30T02:11:24.706Z,7.80
2023-04-30T02:13:51.768Z,7.79
2023-04-30T02:16:18.674Z,7.94
2023-04-30T02:18:45.995Z,7.90
2023-04-30T02:21:12.765Z,7.93
2023-04-30T02:23:39.343Z,8.00
2023-04-30T02:26:06.072Z,8.01
2023-04-30T02:28:32.672Z,8.14
2023-04-30T02:30:59.383Z,8.11
2023-04-30T02:33:26.066Z,8.18
2023-04-30T02:35:52.699Z,8.20
2023-04-30T02:38:19.331Z,8.19
2023-04-30T02:40:45.930Z,8.19
2023-04-30T02:43:12.531Z,8.32
2023-04-30T02:45:39.198Z,8.39
2023-04-30T02:48:06.072Z,8.40
2023-04-30T02:50:33.014Z,8.38
2023-04-30T02:53:00.040Z,8.43
2023-04-30T02:55:26.778Z,8.40
2023-04-30T02:57:53.506Z,8.40
2023-04-30T03:00:20.286Z,8.35
2023-04-30T03:02:47.034Z,8.31
2023-04-30T03:05:15.811Z,8.38
2023-04-30T03:07:42.536Z,8.37
2023-04-30T03:10:10.001Z,8.40
2023-04-30T03:12:36.707Z,8.37
2023-04-30T03:15:03.823Z,8.50
2023-04-30T03:17:30.491Z,8.46
2023-04-30T03:19:57.239Z,8.54
2023-04-30T03:22:26.742Z,8.55
2023-04-30T03:24:53.436Z,8.67
2023-04-30T03:27:20.213Z,8.66
2023-04-30T03:29:46.879Z,8.62
2023-04-30T03:32:13.520Z,8.65
2023-04-30T03:34:40.152Z,8.62
2023-04-30T03:37:06.728Z,8.58
2023-04-30T03:39:33.402Z,8.61
2023-04-30T03:42:00.446Z,8.64
2023-04-30T03:44:27.146Z,8.59
2023-04-30T03:46:53.784Z,8.52
2023-04-30T03:49:20.460Z,8.44
2023-04-30T03:51:47.532Z,8.36
2023-04-30T03:54:14.138Z,8.17
2023-04-30T03:56:41.243Z,8.18
2023-04-30T03:59:08.153Z,8.14
2023-04-30T04:01:34.903Z,8.11
2023-04-30T04:04:02.476Z,8.12
2023-04-30T04:06:29.317Z,8.08
2023-04-30T04:08:56.235Z,8.09
2023-04-30T04:11:22.958Z,8.12
2023-04-30T04:13:49.632Z,8.18
2023-04-30T04:16:16.333Z,8.17
2023-04-30T04:18:43.404Z,8.21
2023-04-30T04:21:10.092Z,8.28
2023-04-30T04:23:36.723Z,8.23
2023-04-30T04:26:03.372Z,8.15
2023-04-30T04:28:30.161Z,8.36
2023-04-30T04:30:56.843Z,8.36
2023-04-30T04:33:23.411Z,8.32
2023-04-30T04:35:50.019Z,8.28
2023-04-30T04:38:16.716Z,8.52
2023-04-30T04:40:51.589Z,8.64
2023-04-30T04:43:18.454Z,8.76
2023-04-30T04:45:45.187Z,8.86
2023-04-30T04:48:11.857Z,9.04
2023-04-30T04:50:38.579Z,9.13
2023-04-30T04:53:05.312Z,9.05
2023-04-30T04:55:32.237Z,9.08
2023-04-30T04:57:58.895Z,9.14
2023-04-30T05:00:25.962Z,9.08
2023-04-30T05:02:53.591Z,9.32
2023-04-30T05:05:20.524Z,9.52
2023-04-30T05:07:47.224Z,9.67
2023-04-30T05:10:14.134Z,9.71
2023-04-30T05:12:40.969Z,9.67
2023-04-30T05:15:08.109Z,9.77
2023-04-30T05:17:34.856Z,9.70
2023-04-30T05:20:01.899Z,9.67
2023-04-30T05:22:28.591Z,9.68
2023-04-30T05:24:55.971Z,9.77
2023-04-30T05:27:22.664Z,9.85
2023-04-30T05:29:49.412Z,9.90
2023-04-30T05:32:16.436Z,9.91
2023-04-30T05:34:43.067Z,9.64
2023-04-30T05:37:09.784Z,9.55
2023-04-30T05:39:36.415Z,9.73
2023-04-30T05:42:03.486Z,9.83
2023-04-30T05:44:33.090Z,10.00
2023-04-30T05:46:59.785Z,10.08
2023-04-30T05:49:27.497Z,10.24
2023-04-30T05:51:54.198Z,10.31
2023-04-30T05:54:20.848Z,10.44
2023-04-30T05:56:47.806Z,10.63
2023-04-30T05:59:14.453Z,10.82
2023-04-30T06:01:41.876Z,11.03
2023-04-30T06:04:09.429Z,11.10
2023-04-30T06:06:41.327Z,11.23
2023-04-30T06:09:08.277Z,11.06
2023-04-30T06:11:35.208Z,10.85
2023-04-30T06:14:06.058Z,11.35
2023-04-30T06:16:33.364Z,11.39
2023-04-30T06:19:00.455Z,11.65
2023-04-30T06:21:27.354Z,11.45
2023-04-30T06:23:54.162Z,11.85
2023-04-30T06:26:21.005Z,11.74
2023-04-30T06:28:47.645Z,11.61
2023-04-30T06:31:14.490Z,11.77
2023-04-30T06:33:41.196Z,12.26
2023-04-30T06:36:07.806Z,12.70
2023-04-30T06:38:34.440Z,13.08
2023-04-30T06:41:01.085Z,13.59
2023-04-30T06:43:27.762Z,14.06
2023-04-30T06:45:54.414Z,14.64
2023-04-30T06:48:21.084Z,14.97
2023-04-30T06:50:47.646Z,15.06
2023-04-30T06:53:15.278Z,15.12
2023-04-30T06:55:43.075Z,14.56
2023-04-30T06:58:09.810Z,14.44
2023-04-30T07:00:36.633Z,14.42
2023-04-30T07:03:04.894Z,14.60
2023-04-30T07:05:32.117Z,14.74
2023-04-30T07:08:01.447Z,15.00
2023-04-30T07:10:28.174Z,15.34
2023-04-30T07:12:55.288Z,15.38
2023-04-30T07:15:22.007Z,15.14
2023-04-30T07:17:48.770Z,15.06
2023-04-30T07:20:15.967Z,15.01
2023-04-30T07:22:45.859Z,14.96
2023-04-30T07:25:15.939Z,14.82
2023-04-30T07:27:42.647Z,14.94
2023-04-30T07:30:10.698Z,15.18
2023-04-30T07:32:38.230Z,15.34
2023-04-30T07:35:05.354Z,15.23
2023-04-30T07:37:34.912Z,15.18
2023-04-30T07:40:02.466Z,15.19
2023-04-30T07:42:29.148Z,15.30
2023-04-30T07:44:55.740Z,15.53
2023-04-30T07:47:22.524Z,15.64
2023-04-30T07:49:49.924Z,15.46
2023-04-30T07:52:16.755Z,15.66
2023-04-30T07:54:43.421Z,15.64
2023-04-30T07:57:10.078Z,15.81
2023-04-30T07:59:36.662Z,15.88
2023-04-30T08:02:03.882Z,15.87
2023-04-30T08:04:30.839Z,15.97
2023-04-30T08:06:57.540Z,16.08
2023-04-30T08:09:24.313Z,16.06
2023-04-30T08:11:51.372Z,15.78
2023-04-30T08:14:18.053Z,15.75
2023-04-30T08:16:44.898Z,15.64
2023-04-30T08:19:11.615Z,15.62
2023-04-30T08:21:39.034Z,15.52
2023-04-30T08:24:05.919Z,15.52
2023-04-30T08:26:32.594Z,15.53
2023-04-30T08:28:59.248Z,15.67
2023-04-30T08:31:26.076Z,15.83
2023-04-30T08:33:52.910Z,16.08
2023-04-30T08:36:19.837Z,16.14
2023-04-30T08:38:46.731Z,16.13
2023-04-30T08:41:18.782Z,16.06
2023-04-30T08:43:45.426Z,16.34
2023-04-30T08:46:13.985Z,16.72
2023-04-30T08:48:41.635Z,16.46
2023-04-30T08:51:08.466Z,16.77
2023-04-30T08:53:38.439Z,16.71
2023-04-30T08:56:05.956Z,16.62
2023-04-30T08:58:32.954Z,17.15
2023-04-30T09:01:00.764Z,17.61
2023-04-30T09:03:28.565Z,17.93
2023-04-30T09:05:55.572Z,18.38
2023-04-30T09:11:30.599Z,18.93
2023-04-30T09:14:01.888Z,18.75
2023-04-30T09:16:33.829Z,19.01
2023-04-30T09:19:08.147Z,19.33
2023-04-30T09:24:24.142Z,19.12
2023-04-30T09:26:51.753Z,18.73
2023-04-30T09:29:18.614Z,18.48
2023-04-30T09:32:01.354Z,19.08
2023-04-30T09:34:35.971Z,19.51
2023-04-30T09:37:02.664Z,19.39
2023-04-30T09:39:30.051Z,19.80
2023-04-30T09:42:10.150Z,19.66
2023-04-30T09:44:44.527Z,19.95
2023-04-30T09:47:15.992Z,20.60
2023-04-30T09:49:45.808Z,20.40
2023-04-30T09:52:12.837Z,20.12
2023-04-30T09:54:41.193Z,19.96
2023-04-30T09:57:11.454Z,20.18
2023-04-30T09:59:39.864Z,20.27
2023-04-30T10:02:08.841Z,19.94
2023-04-30T10:04:42.957Z,19.62
2023-04-30T10:07:15.619Z,19.38
2023-04-30T10:09:59.886Z,19.36
2023-04-30T10:12:44.664Z,18.71
2023-04-30T10:15:17.722Z,17.66
2023-04-30T10:17:50.211Z,16.80
2023-04-30T10:20:19.209Z,16.07
2023-04-30T10:22:48.660Z,15.62
2023-04-30T10:25:16.507Z,15.53
2023-04-30T10:27:43.712Z,15.36
2023-04-30T10:30:11.939Z,15.24
2023-04-30T10:32:57.813Z,15.52
2023-04-30T10:35:33.562Z,15.72
2023-04-30T10:38:17.019Z,16.10
2023-04-30T10:40:47.307Z,16.23
2023-04-30T10:43:14.182Z,16.67
2023-04-30T10:45:46.774Z,17.29
2023-04-30T10:48:16.083Z,17.31
2023-04-30T10:50:46.199Z,17.34
2023-04-30T10:53:16.202Z,17.30
2023-04-30T10:56:06.645Z,17.82
2023-04-30T10:58:35.739Z,18.35
2023-04-30T11:01:12.215Z,18.49
2023-04-30T11:03:41.298Z,18.40
2023-04-30T11:06:15.969Z,18.79
2023-04-30T11:08:47.612Z,19.18
2023-04-30T11:11:24.011Z,18.63
2023-04-30T11:14:01.340Z,18.52
2023-04-30T11:16:34.394Z,18.30
2023-04-30T11:19:11.681Z,18.55
2023-04-30T11:21:42.958Z,18.75
2023-04-30T11:24:23.353Z,19.04
2023-04-30T11:27:15.413Z,18.65
2023-04-30T11:29:44.159Z,18.86
2023-04-30T11:32:11.099Z,18.72
2023-04-30T11:34:39.093Z,18.75
2023-04-30T11:37:07.037Z,18.44
2023-04-30T11:39:37.314Z,18.33
2023-04-30T11:42:04.222Z,18.25
2023-04-30T11:44:31.146Z,18.24
2023-04-30T11:46:58.867Z,18.65
2023-04-30T11:49:27.130Z,18.18
2023-04-30T11:51:53.910Z,17.77
2023-04-30T11:54:20.703Z,16.96
2023-04-30T11:56:49.178Z,16.32
2023-04-30T11:59:17.006Z,16.59
2023-04-30T12:01:44.590Z,16.44
2023-04-30T12:06:37.055Z,15.72
2023-04-30T12:09:07.403Z,15.45
2023-04-30T12:11:35.739Z,15.70
2023-04-30T12:14:07.895Z,15.58
2023-04-30T12:16:51.284Z,15.11
2023-04-30T12:19:19.510Z,15.57
2023-04-30T12:21:48.540Z,15.64
2023-04-30T12:24:17.713Z,15.49
2023-04-30T12:26:45.237Z,15.43
2023-04-30T12:29:15.881Z,15.49
2023-04-30T12:31:43.795Z,16.04
2023-04-30T12:34:12.701Z,16.13
2023-04-30T12:36:42.893Z,16.10
2023-04-30T12:39:20.827Z,15.90
2023-04-30T12:41:49.529Z,16.18
2023-04-30T12:44:27.660Z,16.31
2023-04-30T12:46:57.385Z,16.25
2023-04-30T12:49:29.679Z,16.48
2023-04-30T12:52:09.030Z,16.44
2023-04-30T12:54:36.942Z,16.42
2023-04-30T12:57:12.467Z,16.46
2023-04-30T12:59:59.404Z,16.75
2023-04-30T13:02:28.745Z,16.98
2023-04-30T13:04:55.697Z,16.82
2023-04-30T13:07:23.267Z,16.73
2023-04-30T13:09:50.120Z,16.88
2023-04-30T13:12:17.236Z,16.82
2023-04-30T13:14:44.980Z,16.98
2023-04-30T13:17:14.154Z,17.27
2023-04-30T13:19:41.221Z,17.14
2023-04-30T13:22:08.076Z,16.94
2023-04-30T13:24:36.325Z,17.58
2023-04-30T13:27:04.350Z,17.75
2023-04-30T13:29:32.045Z,17.73
2023-04-30T13:31:59.369Z,17.88
2023-04-30T13:34:26.665Z,17.52
2023-04-30T13:36:57.322Z,17.63
2023-04-30T13:39:29.245Z,17.86
2023-04-30T13:41:56.213Z,17.97
2023-04-30T13:44:24.750Z,17.82
2023-04-30T13:46:52.357Z,17.22
2023-04-30T13:49:19.485Z,16.52
2023-04-30T13:51:46.067Z,16.68
2023-04-30T13:54:12.696Z,16.86
2023-04-30T13:56:42.998Z,17.11
2023-04-30T13:59:09.734Z,16.90
2023-04-30T14:01:37.366Z,17.20
2023-04-30T14:04:04.889Z,17.42
2023-04-30T14:06:32.134Z,17.61
2023-04-30T14:08:58.797Z,17.90
2023-04-30T14:11:27.512Z,17.96
2023-04-30T14:13:55.227Z,17.99
2023-04-30T14:16:23.021Z,17.91
2023-04-30T14:18:49.892Z,17.71
2023-04-30T14:21:16.598Z,17.21
2023-04-30T14:23:46.546Z,17.50
2023-04-30T14:26:13.363Z,17.77
2023-04-30T14:28:40.098Z,18.09
2023-04-30T14:31:06.864Z,18.48
2023-04-30T14:33:33.459Z,18.63
2023-04-30T14:36:03.186Z,18.89
2023-04-30T14:38:29.786Z,19.03
2023-04-30T14:40:56.417Z,19.25
2023-04-30T14:43:23.684Z,19.29
2023-04-30T14:45:52.068Z,19.54
2023-04-30T14:48:18.709Z,19.76
2023-04-30T14:50:49.280Z,19.74
2023-04-30T14:53:16.421Z,19.76
2023-04-30T14:55:43.954Z,19.61
2023-04-30T15:01:10.865Z,19.17
2023-04-30T15:03:41.020Z,18.94
2023-04-30T15:06:08.898Z,18.78
2023-04-30T15:08:36.737Z,17.70
2023-04-30T15:11:07.641Z,17.32
2023-04-30T15:13:35.053Z,16.83
2023-04-30T15:16:02.358Z,17.26
2023-04-30T15:18:29.838Z,17.22
2023-04-30T15:20:56.791Z,17.03
2023-04-30T15:23:24.154Z,16.77
2023-04-30T15:26:05.825Z,16.79
2023-04-30T15:31:32.319Z,17.07
2023-04-30T15:34:01.066Z,18.21
2023-04-30T15:36:28.792Z,18.43
2023-04-30T15:38:56.598Z,18.21
2023-04-30T15:41:24.902Z,18.24
2023-04-30T15:43:52.250Z,17.96
2023-04-30T15:46:26.021Z,18.31
2023-04-30T15:48:53.482Z,18.20
2023-04-30T15:51:27.354Z,18.14
2023-04-30T15:54:03.458Z,18.09
2023-04-30T15:56:32.039Z,17.87
2023-04-30T15:59:05.981Z,18.01
2023-04-30T16:01:34.102Z,17.54
2023-04-30T16:04:01.514Z,17.74
2023-04-30T16:06:30.239Z,17.14
2023-04-30T16:08:57.340Z,17.73
2023-04-30T16:11:24.533Z,17.80
2023-04-30T16:14:14.236Z,17.85
2023-04-30T16:16:41.516Z,17.51
2023-04-30T16:19:30.763Z,17.56
2023-04-30T16:21:58.410Z,17.57
2023-04-30T16:24:38.971Z,18.05
2023-04-30T16:27:15.439Z,17.85
2023-04-30T16:29:43.604Z,18.00
2023-04-30T16:32:13.051Z,17.96
2023-04-30T16:34:41.289Z,17.99
2023-04-30T16:37:07.874Z,17.70
2023-04-30T16:39:34.542Z,17.72
2023-04-30T16:42:02.357Z,17.81
2023-04-30T16:44:28.990Z,17.80
2023-04-30T16:46:58.247Z,17.72
2023-04-30T16:49:24.975Z,17.76
2023-04-30T16:51:51.820Z,17.65
2023-04-30T16:54:18.896Z,17.65
2023-04-30T16:56:45.615Z,17.61
2023-04-30T16:59:12.315Z,17.40
2023-04-30T17:01:39.200Z,16.91
2023-04-30T17:04:07.236Z,17.09
2023-04-30T17:07:11.980Z,16.91
2023-04-30T17:09:38.637Z,16.24
2023-04-30T17:12:05.601Z,16.57
2023-04-30T17:14:34.264Z,16.39
2023-04-30T17:17:01.982Z,16.32
2023-04-30T17:19:28.877Z,16.27
2023-04-30T17:21:57.179Z,16.19
2023-04-30T17:24:24.390Z,16.11
2023-04-30T17:26:51.756Z,15.90
2023-04-30T17:29:22.803Z,15.90
2023-04-30T17:31:50.107Z,15.50
2023-04-30T17:34:17.733Z,15.23
2023-04-30T17:36:44.947Z,15.53
2023-04-30T17:39:13.026Z,15.43
2023-04-30T17:41:41.182Z,15.17
2023-04-30T17:44:08.520Z,15.28
2023-04-30T17:46:35.900Z,14.67
2023-04-30T17:49:03.715Z,15.15
2023-04-30T17:51:31.799Z,15.01
2023-04-30T17:54:02.724Z,14.86
2023-04-30T17:56:33.448Z,14.63
2023-04-30T17:59:01.134Z,14.64
2023-04-30T18:01:28.185Z,14.49
2023-04-30T18:03:55.527Z,14.43
2023-04-30T18:06:22.350Z,14.39
2023-04-30T18:08:49.409Z,14.29
2023-04-30T18:11:16.737Z,14.11
2023-04-30T18:13:43.790Z,14.12
2023-04-30T18:16:10.840Z,14.02
2023-04-30T18:18:37.703Z,14.03
2023-04-30T18:21:08.914Z,13.93
2023-04-30T18:23:37.302Z,13.83
2023-04-30T18:26:05.151Z,13.76
2023-04-30T18:28:31.838Z,13.77
2023-04-30T18:30:58.537Z,13.75
2023-04-30T18:33:26.319Z,13.70
2023-04-30T18:35:53.239Z,13.56
2023-04-30T18:38:20.867Z,13.52
2023-04-30T18:40:47.664Z,13.47
2023-04-30T18:43:16.392Z,13.52
2023-04-30T18:45:43.179Z,13.39
2023-04-30T18:48:10.098Z,13.22
2023-04-30T18:50:37.384Z,13.16
2023-04-30T18:53:04.725Z,13.11
2023-04-30T18:55:31.601Z,13.09
2023-04-30T18:57:58.817Z,13.12
2023-04-30T19:00:25.972Z,13.09
2023-04-30T19:02:52.849Z,13.17
2023-04-30T19:05:19.916Z,13.17
2023-04-30T19:07:46.907Z,13.19
2023-04-30T19:10:13.811Z,13.24
2023-04-30T19:12:41.530Z,13.26
2023-04-30T19:15:10.004Z,13.28
2023-04-30T19:17:36.755Z,13.28
2023-04-30T19:20:04.132Z,13.31
2023-04-30T19:22:31.189Z,13.30
2023-04-30T19:25:01.254Z,13.37
2023-04-30T19:27:28.237Z,13.44
2023-04-30T19:29:55.279Z,13.52
2023-04-30T19:32:22.191Z,13.47
2023-04-30T19:34:49.042Z,13.51
2023-04-30T19:37:15.795Z,13.49
2023-04-30T19:39:43.219Z,13.43
2023-04-30T19:42:10.092Z,13.35
2023-04-30T19:44:37.091Z,13.30
2023-04-30T19:47:05.104Z,13.10
2023-04-30T19:49:34.413Z,13.15
2023-04-30T19:52:02.423Z,13.07
2023-04-30T19:54:29.110Z,12.97
2023-04-30T19:56:56.041Z,12.91
2023-04-30T19:59:22.950Z,12.64
2023-04-30T20:01:50.129Z,12.83
2023-04-30T20:04:17.002Z,12.79
2023-04-30T20:06:44.960Z,12.68
2023-04-30T20:09:12.035Z,12.48
2023-04-30T20:11:38.839Z,12.54
2023-04-30T20:14:05.717Z,12.46
2023-04-30T20:16:32.687Z,12.46
2023-04-30T20:18:59.605Z,12.47
2023-04-30T20:21:26.434Z,12.34
2023-04-30T20:23:53.403Z,12.23
2023-04-30T20:26:21.617Z,12.17
2023-04-30T20:28:48.417Z,12.09
2023-04-30T20:31:15.367Z,12.12
2023-04-30T20:33:42.450Z,12.26
2023-04-30T20:36:09.203Z,12.27
2023-04-30T20:38:36.228Z,12.30
2023-04-30T20:41:02.905Z,12.36
2023-04-30T20:43:29.698Z,12.31
2023-04-30T20:45:58.906Z,12.22
2023-04-30T20:48:26.441Z,12.17
2023-04-30T20:50:53.052Z,12.20
2023-04-30T20:53:19.953Z,12.20
2023-04-30T20:55:46.597Z,12.18
2023-04-30T20:58:13.244Z,12.19
2023-04-30T21:00:40.113Z,12.15
2023-04-30T21:03:07.015Z,12.18
2023-04-30T21:05:34.356Z,12.18
2023-04-30T21:08:01.920Z,12.09
2023-04-30T21:10:36.229Z,12.19
2023-04-30T21:13:08.872Z,12.17
2023-04-30T21:15:36.382Z,12.13
2023-04-30T21:18:03.482Z,12.02
2023-04-30T21:20:31.657Z,12.04
2023-04-30T21:22:58.618Z,12.04
2023-04-30T21:25:25.252Z,11.98
2023-04-30T21:27:52.310Z,11.98
2023-04-30T21:30:19.210Z,11.86
2023-04-30T21:32:48.848Z,11.80
2023-04-30T21:35:15.842Z,11.98
2023-04-30T21:37:42.563Z,11.95
2023-04-30T21:40:09.647Z,11.99
2023-04-30T21:42:36.453Z,11.81
2023-04-30T21:45:03.450Z,11.95
2023-04-30T21:47:30.843Z,12.02
2023-04-30T21:49:58.830Z,12.02
2023-04-30T21:52:25.962Z,12.06
2023-04-30T21:54:52.634Z,12.04
2023-04-30T21:57:19.573Z,12.09
2023-04-30T21:59:46.224Z,12.16
2023-04-30T22:02:23.316Z,12.09
2023-04-30T22:04:51.247Z,12.00
2023-04-30T22:07:18.293Z,12.08
2023-04-30T22:09:45.065Z,12.01
2023-04-30T22:12:12.276Z,12.06
2023-04-30T22:14:39.232Z,12.04
2023-04-30T22:17:06.014Z,11.94
2023-04-30T22:19:32.631Z,11.82
2023-04-30T22:21:59.719Z,11.79
2023-04-30T22:24:26.332Z,11.74
2023-04-30T22:26:52.959Z,11.74
2023-04-30T22:29:19.945Z,11.63
2023-04-30T22:31:46.989Z,11.66
2023-04-30T22:34:15.515Z,11.56
2023-04-30T22:36:43.626Z,11.41
2023-04-30T22:39:10.245Z,11.39
2023-04-30T22:41:36.922Z,11.29
2023-04-30T22:44:04.748Z,11.34
2023-04-30T22:46:33.575Z,11.31
2023-04-30T22:49:01.056Z,11.23
2023-04-30T22:51:27.680Z,11.10
2023-04-30T22:53:55.497Z,10.94
2023-04-30T22:56:23.355Z,10.97
2023-04-30T22:58:50.079Z,10.95
2023-04-30T23:01:16.960Z,10.92
2023-04-30T23:03:43.768Z,10.82
2023-04-30T23:06:11.086Z,10.67
2023-04-30T23:08:37.855Z,10.67
2023-04-30T23:11:05.314Z,10.55
2023-04-30T23:13:32.024Z,10.57
2023-04-30T23:15:59.542Z,10.47
2023-04-30T23:18:26.369Z,10.37
2023-04-30T23:20:59.011Z,10.37
2023-04-30T23:23:26.791Z,10.43
2023-04-30T23:25:54.744Z,10.36
2023-04-30T23:28:22.473Z,10.38
2023-04-30T23:30:52.629Z,10.43
2023-04-30T23:33:19.947Z,10.40
2023-04-30T23:35:47.090Z,10.47
2023-04-30T23:38:14.888Z,10.43
2023-04-30T23:40:42.326Z,10.46
2023-04-30T23:43:09.554Z,10.38
2023-04-30T23:45:36.175Z,10.26
2023-04-30T23:48:02.905Z,10.38
2023-04-30T23:50:29.625Z,10.44
2023-04-30T23:52:56.255Z,10.45
2023-04-30T23:55:22.920Z,10.35
2023-04-30T23:57:49.517Z,10.38
